sensor_id;sensor_type;location;lat;lon;timestamp;pressure;altitude;pressure_sealevel;temperature;humidity
8140;BME280;4111;50.972;7.072;2023-03-26T00:01:12;100341.94;;;10.91;78.83
8140;BME280;4111;50.972;7.072;2023-03-26T00:03:41;100339.28;;;10.97;78.89
8140;BME280;4111;50.972;7.072;2023-03-26T00:06:12;100345.53;;;10.97;78.96
8140;BME280;4111;50.972;7.072;2023-03-26T00:08:40;100339.28;;;10.97;79.09
8140;BME280;4111;50.972;7.072;2023-03-26T00:11:08;100350.16;;;10.97;78.98
8140;BME280;4111;50.972;7.072;2023-03-26T00:13:35;100344.16;;;10.95;78.65
8140;BME280;4111;50.972;7.072;2023-03-26T00:16:02;100342.25;;;10.95;78.79
8140;BME280;4111;50.972;7.072;2023-03-26T00:18:29;100353.38;;;10.94;78.86
8140;BME280;4111;50.972;7.072;2023-03-26T00:20:58;100344.72;;;10.97;78.79
8140;BME280;4111;50.972;7.072;2023-03-26T00:23:26;100341.44;;;10.95;78.55
8140;BME280;4111;50.972;7.072;2023-03-26T00:25:54;100341.94;;;10.91;78.71
8140;BME280;4111;50.972;7.072;2023-03-26T00:28:22;100340.09;;;10.92;78.90
8140;BME280;4111;50.972;7.072;2023-03-26T00:30:55;100334.34;;;10.88;78.83
8140;BME280;4111;50.972;7.072;2023-03-26T00:33:22;100339.53;;;10.90;78.96
8140;BME280;4111;50.972;7.072;2023-03-26T00:35:53;100337.56;;;10.85;79.27
8140;BME280;4111;50.972;7.072;2023-03-26T00:38:21;100341.66;;;10.88;79.05
8140;BME280;4111;50.972;7.072;2023-03-26T00:40:49;100327.50;;;10.86;78.96
8140;BME280;4111;50.972;7.072;2023-03-26T00:43:17;100333.25;;;10.89;78.89
8140;BME280;4111;50.972;7.072;2023-03-26T00:45:53;100328.44;;;10.97;78.86
8140;BME280;4111;50.972;7.072;2023-03-26T00:48:21;100324.63;;;10.98;78.90
8140;BME280;4111;50.972;7.072;2023-03-26T00:51:04;100315.97;;;11.01;78.63
8140;BME280;4111;50.972;7.072;2023-03-26T00:53:31;100318.13;;;10.99;78.83
8140;BME280;4111;50.972;7.072;2023-03-26T00:55:58;100311.09;;;11.03;79.11
8140;BME280;4111;50.972;7.072;2023-03-26T00:58:26;100310.28;;;11.02;78.75
8140;BME280;4111;50.972;7.072;2023-03-26T01:00:55;100310.28;;;11.02;78.59
8140;BME280;4111;50.972;7.072;2023-03-26T01:03:24;100307.00;;;11.00;78.27
8140;BME280;4111;50.972;7.072;2023-03-26T01:08:46;100295.34;;;11.05;78.32
8140;BME280;4111;50.972;7.072;2023-03-26T01:11:17;100292.63;;;11.05;78.49
8140;BME280;4111;50.972;7.072;2023-03-26T01:14:01;100292.13;;;11.08;78.27
8140;BME280;4111;50.972;7.072;2023-03-26T01:16:38;100290.78;;;11.10;78.14
8140;BME280;4111;50.972;7.072;2023-03-26T01:19:14;100283.47;;;11.16;78.24
8140;BME280;4111;50.972;7.072;2023-03-26T01:21:45;100276.38;;;11.15;78.05
8140;BME280;4111;50.972;7.072;2023-03-26T01:24:12;100271.50;;;11.12;78.07
8140;BME280;4111;50.972;7.072;2023-03-26T01:29:43;100269.84;;;11.11;78.24
8140;BME280;4111;50.972;7.072;2023-03-26T01:32:20;100258.41;;;11.04;78.12
8140;BME280;4111;50.972;7.072;2023-03-26T01:34:59;100267.63;;;11.03;78.20
8140;BME280;4111;50.972;7.072;2023-03-26T01:37:42;100265.94;;;10.97;78.54
8140;BME280;4111;50.972;7.072;2023-03-26T01:40:23;100261.03;;;10.94;78.51
8140;BME280;4111;50.972;7.072;2023-03-26T01:43:12;100255.91;;;10.97;78.92
8140;BME280;4111;50.972;7.072;2023-03-26T01:45:43;100249.91;;;10.95;78.70
8140;BME280;4111;50.972;7.072;2023-03-26T01:48:12;100251.75;;;10.89;78.67
8140;BME280;4111;50.972;7.072;2023-03-26T01:50:39;100241.94;;;10.83;78.41
8140;BME280;4111;50.972;7.072;2023-03-26T01:53:06;100242.47;;;10.80;78.65
8140;BME280;4111;50.972;7.072;2023-03-26T01:55:44;100243.50;;;10.74;78.65
8140;BME280;4111;50.972;7.072;2023-03-26T01:58:34;100235.28;;;10.64;78.93
8140;BME280;4111;50.972;7.072;2023-03-26T02:01:11;100229.81;;;10.59;79.17
8140;BME280;4111;50.972;7.072;2023-03-26T02:03:47;100228.47;;;10.61;79.20
8140;BME280;4111;50.972;7.072;2023-03-26T02:08:55;100221.88;;;10.52;79.43
8140;BME280;4111;50.972;7.072;2023-03-26T02:11:23;100221.53;;;10.43;79.82
8140;BME280;4111;50.972;7.072;2023-03-26T02:14:00;100226.44;;;10.46;79.67
8140;BME280;4111;50.972;7.072;2023-03-26T02:16:28;100212.88;;;10.46;79.61
8140;BME280;4111;50.972;7.072;2023-03-26T02:18:54;100216.13;;;10.43;79.62
8140;BME280;4111;50.972;7.072;2023-03-26T02:21:23;100201.44;;;10.39;79.89
8140;BME280;4111;50.972;7.072;2023-03-26T02:23:54;100206.25;;;10.32;80.06
8140;BME280;4111;50.972;7.072;2023-03-26T02:26:30;100200.44;;;10.23;80.37
8140;BME280;4111;50.972;7.072;2023-03-26T02:28:57;100188.75;;;10.23;80.57
8140;BME280;4111;50.972;7.072;2023-03-26T02:31:24;100188.16;;;10.16;80.85
8140;BME280;4111;50.972;7.072;2023-03-26T02:33:52;100183.25;;;10.12;80.79
8140;BME280;4111;50.972;7.072;2023-03-26T02:36:18;100172.69;;;10.16;80.87
8140;BME280;4111;50.972;7.072;2023-03-26T02:38:49;100181.09;;;10.15;80.92
8140;BME280;4111;50.972;7.072;2023-03-26T02:41:17;100169.19;;;10.16;80.84
8140;BME280;4111;50.972;7.072;2023-03-26T02:43:43;100166.41;;;10.10;81.13
8140;BME280;4111;50.972;7.072;2023-03-26T02:46:09;100165.28;;;10.06;81.40
8140;BME280;4111;50.972;7.072;2023-03-26T02:48:36;100159.06;;;10.06;81.87
8140;BME280;4111;50.972;7.072;2023-03-26T02:51:03;100149.56;;;10.08;81.72
8140;BME280;4111;50.972;7.072;2023-03-26T02:53:29;100152.53;;;10.07;82.31
8140;BME280;4111;50.972;7.072;2023-03-26T02:55:57;100143.25;;;9.98;82.41
8140;BME280;4111;50.972;7.072;2023-03-26T02:58:24;100138.00;;;9.91;82.76
8140;BME280;4111;50.972;7.072;2023-03-26T03:00:52;100135.78;;;9.83;83.64
8140;BME280;4111;50.972;7.072;2023-03-26T03:03:26;100132.41;;;9.70;83.95
8140;BME280;4111;50.972;7.072;2023-03-26T03:05:53;100130.75;;;9.69;84.06
8140;BME280;4111;50.972;7.072;2023-03-26T03:08:24;100135.69;;;9.72;84.23
8140;BME280;4111;50.972;7.072;2023-03-26T03:11:00;100134.34;;;9.75;84.35
8140;BME280;4111;50.972;7.072;2023-03-26T03:13:27;100132.63;;;9.64;85.01
8140;BME280;4111;50.972;7.072;2023-03-26T03:15:54;100132.91;;;9.67;85.72
8140;BME280;4111;50.972;7.072;2023-03-26T03:18:21;100129.63;;;9.65;85.77
8140;BME280;4111;50.972;7.072;2023-03-26T03:20:48;100123.16;;;9.66;86.05
8140;BME280;4111;50.972;7.072;2023-03-26T03:23:15;100125.31;;;9.64;85.80
8140;BME280;4111;50.972;7.072;2023-03-26T03:25:42;100115.81;;;9.67;86.00
8140;BME280;4111;50.972;7.072;2023-03-26T03:28:08;100109.59;;;9.66;86.65
8140;BME280;4111;50.972;7.072;2023-03-26T03:30:35;100111.59;;;9.49;87.39
8140;BME280;4111;50.972;7.072;2023-03-26T03:33:01;100111.09;;;9.52;87.49
8140;BME280;4111;50.972;7.072;2023-03-26T03:35:29;100104.00;;;9.51;87.84
8140;BME280;4111;50.972;7.072;2023-03-26T03:37:56;100098.09;;;9.54;87.94
8140;BME280;4111;50.972;7.072;2023-03-26T03:40:23;100101.31;;;9.51;87.90
8140;BME280;4111;50.972;7.072;2023-03-26T03:42:50;100091.03;;;9.53;87.68
8140;BME280;4111;50.972;7.072;2023-03-26T03:45:17;100095.94;;;9.56;87.44
8140;BME280;4111;50.972;7.072;2023-03-26T03:47:43;100081.84;;;9.54;87.12
8140;BME280;4111;50.972;7.072;2023-03-26T03:50:10;100087.25;;;9.54;86.85
8140;BME280;4111;50.972;7.072;2023-03-26T03:52:36;100090.38;;;9.41;87.24
8140;BME280;4111;50.972;7.072;2023-03-26T03:55:03;100086.56;;;9.42;87.05
8140;BME280;4111;50.972;7.072;2023-03-26T03:57:30;100083.03;;;9.41;87.53
8140;BME280;4111;50.972;7.072;2023-03-26T03:59:58;100074.56;;;9.32;87.93
8140;BME280;4111;50.972;7.072;2023-03-26T04:02:25;100069.47;;;9.36;87.90
8140;BME280;4111;50.972;7.072;2023-03-26T04:04:56;100065.09;;;9.35;87.89
8140;BME280;4111;50.972;7.072;2023-03-26T04:07:27;100063.00;;;9.42;88.10
8140;BME280;4111;50.972;7.072;2023-03-26T04:09:56;100057.03;;;9.40;88.44
8140;BME280;4111;50.972;7.072;2023-03-26T04:12:22;100048.53;;;9.31;88.59
8140;BME280;4111;50.972;7.072;2023-03-26T04:14:48;100046.06;;;9.30;88.98
8140;BME280;4111;50.972;7.072;2023-03-26T04:17:15;100045.25;;;9.29;89.35
8140;BME280;4111;50.972;7.072;2023-03-26T04:19:41;100040.41;;;9.31;89.59
8140;BME280;4111;50.972;7.072;2023-03-26T04:22:09;100032.50;;;9.25;89.94
8140;BME280;4111;50.972;7.072;2023-03-26T04:24:37;100025.19;;;9.25;90.26
8140;BME280;4111;50.972;7.072;2023-03-26T04:27:07;100023.28;;;9.26;90.25
8140;BME280;4111;50.972;7.072;2023-03-26T04:29:40;100017.06;;;9.25;90.52
8140;BME280;4111;50.972;7.072;2023-03-26T04:32:12;100011.69;;;9.30;90.69
8140;BME280;4111;50.972;7.072;2023-03-26T04:34:44;100006.84;;;9.32;90.80
8140;BME280;4111;50.972;7.072;2023-03-26T04:37:37;99992.75;;;9.36;90.77
8140;BME280;4111;50.972;7.072;2023-03-26T04:40:13;99991.72;;;9.42;91.00
8140;BME280;4111;50.972;7.072;2023-03-26T04:42:39;99992.03;;;9.45;90.74
8140;BME280;4111;50.972;7.072;2023-03-26T04:45:17;99994.00;;;9.50;91.00
8140;BME280;4111;50.972;7.072;2023-03-26T04:47:48;99992.00;;;9.40;90.74
8140;BME280;4111;50.972;7.072;2023-03-26T04:50:15;99998.25;;;9.41;90.92
8140;BME280;4111;50.972;7.072;2023-03-26T04:52:42;99987.31;;;9.30;91.54
8140;BME280;4111;50.972;7.072;2023-03-26T04:55:34;99983.44;;;9.21;91.92
8140;BME280;4111;50.972;7.072;2023-03-26T04:58:03;99973.72;;;9.25;91.88
8140;BME280;4111;50.972;7.072;2023-03-26T05:00:30;99973.72;;;9.25;92.09
8140;BME280;4111;50.972;7.072;2023-03-26T05:02:57;99959.59;;;9.23;91.96
8140;BME280;4111;50.972;7.072;2023-03-26T05:05:25;99965.84;;;9.24;92.20
8140;BME280;4111;50.972;7.072;2023-03-26T05:07:53;99961.53;;;9.28;91.92
8140;BME280;4111;50.972;7.072;2023-03-26T05:10:20;99961.59;;;9.33;91.81
8140;BME280;4111;50.972;7.072;2023-03-26T05:12:46;99959.66;;;9.28;91.66
8140;BME280;4111;50.972;7.072;2023-03-26T05:15:14;99964.00;;;9.29;92.05
8140;BME280;4111;50.972;7.072;2023-03-26T05:17:41;99956.41;;;9.26;92.16
8140;BME280;4111;50.972;7.072;2023-03-26T05:20:16;99947.44;;;9.26;92.33
8140;BME280;4111;50.972;7.072;2023-03-26T05:22:47;99948.22;;;9.21;91.92
8140;BME280;4111;50.972;7.072;2023-03-26T05:25:15;99950.13;;;9.21;92.37
8140;BME280;4111;50.972;7.072;2023-03-26T05:27:42;99948.28;;;9.26;92.25
8140;BME280;4111;50.972;7.072;2023-03-26T05:30:13;99938.56;;;9.30;91.90
8140;BME280;4111;50.972;7.072;2023-03-26T05:32:40;99937.94;;;9.23;92.13
8140;BME280;4111;50.972;7.072;2023-03-26T05:35:07;99929.75;;;9.18;92.33
8140;BME280;4111;50.972;7.072;2023-03-26T05:37:34;99927.81;;;9.13;92.89
8140;BME280;4111;50.972;7.072;2023-03-26T05:40:03;99921.06;;;9.16;92.67
8140;BME280;4111;50.972;7.072;2023-03-26T05:42:32;99916.22;;;9.18;92.99
8140;BME280;4111;50.972;7.072;2023-03-26T05:44:59;99908.69;;;9.20;92.92
8140;BME280;4111;50.972;7.072;2023-03-26T05:47:25;99911.03;;;9.11;92.97
8140;BME280;4111;50.972;7.072;2023-03-26T05:49:52;99898.28;;;9.12;93.56
8140;BME280;4111;50.972;7.072;2023-03-26T05:52:19;99904.78;;;9.11;93.53
8140;BME280;4111;50.972;7.072;2023-03-26T05:54:45;99906.16;;;9.13;93.87
8140;BME280;4111;50.972;7.072;2023-03-26T05:57:12;99899.13;;;9.12;93.96
8140;BME280;4111;50.972;7.072;2023-03-26T05:59:38;99899.38;;;9.11;94.30
8140;BME280;4111;50.972;7.072;2023-03-26T06:02:05;99893.66;;;9.07;94.93
8140;BME280;4111;50.972;7.072;2023-03-26T06:04:32;99895.56;;;9.07;95.57
8140;BME280;4111;50.972;7.072;2023-03-26T06:06:58;99894.16;;;9.04;96.30
8140;BME280;4111;50.972;7.072;2023-03-26T06:09:27;99885.22;;;9.04;96.27
8140;BME280;4111;50.972;7.072;2023-03-26T06:11:54;99888.50;;;9.06;96.82
8140;BME280;4111;50.972;7.072;2023-03-26T06:14:21;99878.75;;;9.05;97.58
8140;BME280;4111;50.972;7.072;2023-03-26T06:16:47;99880.63;;;9.04;98.08
8140;BME280;4111;50.972;7.072;2023-03-26T06:19:13;99869.78;;;9.04;98.75
8140;BME280;4111;50.972;7.072;2023-03-26T06:21:40;99866.81;;;9.06;98.36
8140;BME280;4111;50.972;7.072;2023-03-26T06:24:07;99866.56;;;9.07;98.35
8140;BME280;4111;50.972;7.072;2023-03-26T06:26:33;99860.91;;;9.09;98.70
8140;BME280;4111;50.972;7.072;2023-03-26T06:29:01;99856.56;;;9.08;98.86
8140;BME280;4111;50.972;7.072;2023-03-26T06:31:27;99857.41;;;9.13;99.49
8140;BME280;4111;50.972;7.072;2023-03-26T06:33:54;99842.53;;;9.16;99.69
8140;BME280;4111;50.972;7.072;2023-03-26T06:36:20;99846.38;;;9.20;100.00
8140;BME280;4111;50.972;7.072;2023-03-26T06:38:47;99840.97;;;9.20;100.00
8140;BME280;4111;50.972;7.072;2023-03-26T06:41:13;99842.03;;;9.19;100.00
8140;BME280;4111;50.972;7.072;2023-03-26T06:43:40;99840.91;;;9.15;100.00
8140;BME280;4111;50.972;7.072;2023-03-26T06:46:06;99830.16;;;9.25;100.00
8140;BME280;4111;50.972;7.072;2023-03-26T06:48:33;99833.66;;;9.26;100.00
8140;BME280;4111;50.972;7.072;2023-03-26T06:50:59;99830.13;;;9.20;100.00
8140;BME280;4111;50.972;7.072;2023-03-26T06:53:25;99829.59;;;9.23;100.00
8140;BME280;4111;50.972;7.072;2023-03-26T06:55:52;99824.19;;;9.23;100.00
8140;BME280;4111;50.972;7.072;2023-03-26T06:58:19;99823.13;;;9.29;100.00
8140;BME280;4111;50.972;7.072;2023-03-26T07:00:46;99821.50;;;9.28;100.00
8140;BME280;4111;50.972;7.072;2023-03-26T07:03:12;99810.69;;;9.28;100.00
8140;BME280;4111;50.972;7.072;2023-03-26T07:05:42;99813.41;;;9.33;100.00
8140;BME280;4111;50.972;7.072;2023-03-26T07:08:08;99813.44;;;9.39;100.00
8140;BME280;4111;50.972;7.072;2023-03-26T07:10:35;99802.56;;;9.33;100.00
8140;BME280;4111;50.972;7.072;2023-03-26T07:13:01;99800.41;;;9.30;100.00
8140;BME280;4111;50.972;7.072;2023-03-26T07:15:28;99799.00;;;9.28;100.00
8140;BME280;4111;50.972;7.072;2023-03-26T07:17:54;99795.53;;;9.32;100.00
8140;BME280;4111;50.972;7.072;2023-03-26T07:20:22;99803.66;;;9.32;100.00
8140;BME280;4111;50.972;7.072;2023-03-26T07:22:49;99796.03;;;9.29;100.00
8140;BME280;4111;50.972;7.072;2023-03-26T07:25:17;99799.84;;;9.33;100.00
8140;BME280;4111;50.972;7.072;2023-03-26T07:27:56;99796.03;;;9.29;100.00
8140;BME280;4111;50.972;7.072;2023-03-26T07:33:28;99795.44;;;9.17;100.00
8140;BME280;4111;50.972;7.072;2023-03-26T07:38:35;99788.91;;;9.18;100.00
8140;BME280;4111;50.972;7.072;2023-03-26T07:41:18;99785.09;;;9.09;100.00
8140;BME280;4111;50.972;7.072;2023-03-26T07:46:30;99773.75;;;9.17;100.00
8140;BME280;4111;50.972;7.072;2023-03-26T07:48:59;99762.38;;;9.15;100.00
8140;BME280;4111;50.972;7.072;2023-03-26T07:51:27;99763.47;;;9.19;100.00
8140;BME280;4111;50.972;7.072;2023-03-26T07:53:54;99764.59;;;9.23;100.00
8140;BME280;4111;50.972;7.072;2023-03-26T07:59:14;99759.97;;;9.24;100.00
8140;BME280;4111;50.972;7.072;2023-03-26T08:15:52;99749.50;;;9.32;100.00
8140;BME280;4111;50.972;7.072;2023-03-26T08:18:34;99747.03;;;9.31;100.00
8140;BME280;4111;50.972;7.072;2023-03-26T08:21:10;99745.69;;;9.33;100.00
8140;BME280;4111;50.972;7.072;2023-03-26T08:23:59;99741.38;;;9.38;100.00
8140;BME280;4111;50.972;7.072;2023-03-26T08:26:34;99739.72;;;9.31;100.00
8140;BME280;4111;50.972;7.072;2023-03-26T08:32:16;99740.25;;;9.28;100.00
8140;BME280;4111;50.972;7.072;2023-03-26T08:34:44;99734.84;;;9.28;100.00
8140;BME280;4111;50.972;7.072;2023-03-26T08:37:12;99738.56;;;9.17;100.00
8140;BME280;4111;50.972;7.072;2023-03-26T08:39:38;99736.69;;;9.23;100.00
8140;BME280;4111;50.972;7.072;2023-03-26T08:45:17;99737.50;;;9.23;100.00
8140;BME280;4111;50.972;7.072;2023-03-26T08:48:01;99726.44;;;9.30;100.00
8140;BME280;4111;50.972;7.072;2023-03-26T08:50:34;99727.47;;;9.24;100.00
8140;BME280;4111;50.972;7.072;2023-03-26T08:53:56;99734.84;;;9.28;100.00
8140;BME280;4111;50.972;7.072;2023-03-26T08:56:23;99719.09;;;9.20;100.00
8140;BME280;4111;50.972;7.072;2023-03-26T09:01:42;99726.88;;;9.06;100.00
8140;BME280;4111;50.972;7.072;2023-03-26T09:15:30;99712.63;;;9.26;100.00
8140;BME280;4111;50.972;7.072;2023-03-26T09:21:26;99704.84;;;8.98;100.00
8140;BME280;4111;50.972;7.072;2023-03-26T09:24:17;99705.66;;;8.93;100.00
8140;BME280;4111;50.972;7.072;2023-03-26T09:27:32;99705.41;;;9.00;100.00
8140;BME280;4111;50.972;7.072;2023-03-26T09:30:42;99699.88;;;8.79;100.00
8140;BME280;4111;50.972;7.072;2023-03-26T09:33:31;99696.63;;;8.77;100.00
8140;BME280;4111;50.972;7.072;2023-03-26T09:36:32;99689.63;;;8.86;100.00
8140;BME280;4111;50.972;7.072;2023-03-26T09:39:16;99685.84;;;8.87;100.00
8140;BME280;4111;50.972;7.072;2023-03-26T09:44:49;99678.28;;;8.89;100.00
8140;BME280;4111;50.972;7.072;2023-03-26T09:47:38;99667.41;;;8.84;100.00
8140;BME280;4111;50.972;7.072;2023-03-26T09:50:33;99664.72;;;8.84;100.00
8140;BME280;4111;50.972;7.072;2023-03-26T09:53:36;99667.41;;;8.79;100.00
8140;BME280;4111;50.972;7.072;2023-03-26T09:59:28;99653.38;;;8.87;100.00
8140;BME280;4111;50.972;7.072;2023-03-26T10:02:15;99645.25;;;8.87;100.00
8140;BME280;4111;50.972;7.072;2023-03-26T10:08:30;99640.53;;;8.72;100.00
8140;BME280;4111;50.972;7.072;2023-03-26T10:11:10;99634.88;;;8.74;100.00
8140;BME280;4111;50.972;7.072;2023-03-26T10:16:41;99630.00;;;8.71;100.00
8140;BME280;4111;50.972;7.072;2023-03-26T10:19:20;99621.66;;;8.78;100.00
8140;BME280;4111;50.972;7.072;2023-03-26T10:22:07;99618.63;;;8.74;100.00
8140;BME280;4111;50.972;7.072;2023-03-26T10:25:11;99615.94;;;8.74;100.00
8140;BME280;4111;50.972;7.072;2023-03-26T10:33:05;99604.19;;;9.01;100.00
8140;BME280;4111;50.972;7.072;2023-03-26T10:35:49;99599.34;;;9.13;100.00
8140;BME280;4111;50.972;7.072;2023-03-26T10:38:35;99601.78;;;9.20;100.00
8140;BME280;4111;50.972;7.072;2023-03-26T10:41:25;99602.56;;;9.10;100.00
8140;BME280;4111;50.972;7.072;2023-03-26T10:52:11;99583.16;;;9.33;100.00
8140;BME280;4111;50.972;7.072;2023-03-26T11:03:05;99572.34;;;9.49;100.00
8140;BME280;4111;50.972;7.072;2023-03-26T11:11:19;99568.06;;;9.73;100.00
8140;BME280;4111;50.972;7.072;2023-03-26T11:14:23;99556.13;;;9.75;100.00
8140;BME280;4111;50.972;7.072;2023-03-26T11:20:15;99558.81;;;9.69;100.00
8140;BME280;4111;50.972;7.072;2023-03-26T11:25:45;99545.03;;;9.86;100.00
8140;BME280;4111;50.972;7.072;2023-03-26T11:31:28;99544.75;;;9.83;100.00
8140;BME280;4111;50.972;7.072;2023-03-26T11:34:03;99544.75;;;9.93;100.00
8140;BME280;4111;50.972;7.072;2023-03-26T11:36:35;99552.88;;;9.98;100.00
8140;BME280;4111;50.972;7.072;2023-03-26T11:39:09;99543.69;;;9.99;100.00
8140;BME280;4111;50.972;7.072;2023-03-26T11:41:38;99550.16;;;9.83;100.00
8140;BME280;4111;50.972;7.072;2023-03-26T11:46:42;99551.81;;;9.84;100.00
8140;BME280;4111;50.972;7.072;2023-03-26T11:49:12;99535.28;;;9.85;100.00
8140;BME280;4111;50.972;7.072;2023-03-26T11:51:42;99536.63;;;9.88;100.00
8140;BME280;4111;50.972;7.072;2023-03-26T11:54:12;99532.28;;;9.92;100.00
8140;BME280;4111;50.972;7.072;2023-03-26T11:56:50;99536.63;;;9.88;100.00
8140;BME280;4111;50.972;7.072;2023-03-26T11:59:36;99540.41;;;9.97;100.00
8140;BME280;4111;50.972;7.072;2023-03-26T12:02:30;99540.41;;;9.97;100.00
8140;BME280;4111;50.972;7.072;2023-03-26T12:07:43;99532.56;;;9.96;100.00
8140;BME280;4111;50.972;7.072;2023-03-26T12:10:33;99532.81;;;10.09;100.00
8140;BME280;4111;50.972;7.072;2023-03-26T12:16:02;99532.53;;;10.21;100.00
8140;BME280;4111;50.972;7.072;2023-03-26T12:18:30;99530.63;;;10.17;100.00
8140;BME280;4111;50.972;7.072;2023-03-26T12:21:12;99527.38;;;10.20;100.00
8140;BME280;4111;50.972;7.072;2023-03-26T12:24:02;99522.50;;;10.37;100.00
8140;BME280;4111;50.972;7.072;2023-03-26T12:29:06;99523.53;;;10.51;100.00
8140;BME280;4111;50.972;7.072;2023-03-26T12:31:41;99519.44;;;10.59;100.00
8140;BME280;4111;50.972;7.072;2023-03-26T12:34:19;99515.31;;;10.77;100.00
8140;BME280;4111;50.972;7.072;2023-03-26T12:36:54;99521.25;;;10.84;100.00
8140;BME280;4111;50.972;7.072;2023-03-26T12:42:28;99524.50;;;10.86;100.00
8140;BME280;4111;50.972;7.072;2023-03-26T12:45:14;99528.78;;;10.98;100.00
8140;BME280;4111;50.972;7.072;2023-03-26T12:47:41;99525.25;;;10.97;100.00
8140;BME280;4111;50.972;7.072;2023-03-26T12:50:35;99523.78;;;11.20;100.00
8140;BME280;4111;50.972;7.072;2023-03-26T12:53:35;99526.69;;;11.34;100.00
8140;BME280;4111;50.972;7.072;2023-03-26T12:56:15;99521.00;;;11.36;100.00
8140;BME280;4111;50.972;7.072;2023-03-26T12:59:00;99521.81;;;11.31;98.67
8140;BME280;4111;50.972;7.072;2023-03-26T13:01:51;99532.25;;;11.58;99.14
8140;BME280;4111;50.972;7.072;2023-03-26T13:09:52;99537.81;;;11.38;98.12
8140;BME280;4111;50.972;7.072;2023-03-26T13:12:48;99539.97;;;11.41;97.89
8140;BME280;4111;50.972;7.072;2023-03-26T13:15:23;99542.19;;;11.34;96.86
8140;BME280;4111;50.972;7.072;2023-03-26T13:21:11;99541.97;;;11.25;96.49
8140;BME280;4111;50.972;7.072;2023-03-26T13:36:53;99544.47;;;11.11;95.68
8140;BME280;4111;50.972;7.072;2023-03-26T13:39:46;99546.72;;;11.04;96.28
8140;BME280;4111;50.972;7.072;2023-03-26T13:47:35;99546.81;;;10.78;97.06
8140;BME280;4111;50.972;7.072;2023-03-26T13:53:14;99551.09;;;10.89;98.36
8140;BME280;4111;50.972;7.072;2023-03-26T13:55:52;99550.22;;;10.99;99.37
8140;BME280;4111;50.972;7.072;2023-03-26T13:58:30;99554.81;;;11.14;99.75
8140;BME280;4111;50.972;7.072;2023-03-26T14:01:09;99559.38;;;11.19;99.60
8140;BME280;4111;50.972;7.072;2023-03-26T14:03:50;99559.66;;;11.22;99.38
8140;BME280;4111;50.972;7.072;2023-03-26T14:09:01;99556.66;;;11.24;99.88
8140;BME280;4111;50.972;7.072;2023-03-26T14:14:18;99558.53;;;11.28;100.00
8140;BME280;4111;50.972;7.072;2023-03-26T14:16:56;99559.59;;;11.32;100.00
8140;BME280;4111;50.972;7.072;2023-03-26T14:19:49;99566.94;;;11.32;100.00
8140;BME280;4111;50.972;7.072;2023-03-26T14:22:36;99570.78;;;11.21;99.28
8140;BME280;4111;50.972;7.072;2023-03-26T14:27:59;99570.97;;;11.40;99.17
8140;BME280;4111;50.972;7.072;2023-03-26T14:41:24;99587.56;;;11.33;95.92
8140;BME280;4111;50.972;7.072;2023-03-26T14:47:19;99588.81;;;11.51;96.25
8140;BME280;4111;50.972;7.072;2023-03-26T14:52:49;99603.88;;;11.33;94.58
8140;BME280;4111;50.972;7.072;2023-03-26T15:01:19;99617.75;;;11.26;93.91
8140;BME280;4111;50.972;7.072;2023-03-26T15:06:33;99614.84;;;11.13;92.86
8140;BME280;4111;50.972;7.072;2023-03-26T15:27:11;99644.56;;;10.63;93.84
8140;BME280;4111;50.972;7.072;2023-03-26T15:41:15;99663.81;;;10.71;93.94
8140;BME280;4111;50.972;7.072;2023-03-26T15:46:33;99679.06;;;10.47;91.53
8140;BME280;4111;50.972;7.072;2023-03-26T15:49:27;99683.38;;;10.32;90.40
8140;BME280;4111;50.972;7.072;2023-03-26T15:52:23;99696.09;;;10.22;90.85
8140;BME280;4111;50.972;7.072;2023-03-26T15:55:04;99698.31;;;10.35;91.29
8140;BME280;4111;50.972;7.072;2023-03-26T15:57:54;99700.22;;;10.40;91.18
8140;BME280;4111;50.972;7.072;2023-03-26T16:00:24;99701.53;;;10.22;89.80
8140;BME280;4111;50.972;7.072;2023-03-26T16:05:43;99711.28;;;10.23;90.05
8140;BME280;4111;50.972;7.072;2023-03-26T16:11:12;99729.72;;;10.10;89.23
8140;BME280;4111;50.972;7.072;2023-03-26T16:13:40;99724.84;;;10.07;89.64
8140;BME280;4111;50.972;7.072;2023-03-26T16:18:44;99727.56;;;10.23;90.01
8140;BME280;4111;50.972;7.072;2023-03-26T16:26:51;99745.78;;;10.32;89.97
8140;BME280;4111;50.972;7.072;2023-03-26T16:29:25;99748.78;;;10.36;89.96
8140;BME280;4111;50.972;7.072;2023-03-26T16:32:15;99754.97;;;10.26;89.31
8140;BME280;4111;50.972;7.072;2023-03-26T16:34:51;99755.78;;;10.22;89.39
8140;BME280;4111;50.972;7.072;2023-03-26T16:42:57;99772.81;;;10.07;89.09
8140;BME280;4111;50.972;7.072;2023-03-26T16:45:42;99777.97;;;10.03;89.40
8140;BME280;4111;50.972;7.072;2023-03-26T16:51:11;99783.41;;;10.03;89.70
8140;BME280;4111;50.972;7.072;2023-03-26T16:54:11;99797.22;;;10.02;89.56
8140;BME280;4111;50.972;7.072;2023-03-26T16:56:59;99810.50;;;9.98;89.28
8140;BME280;4111;50.972;7.072;2023-03-26T16:59:41;99813.16;;;9.88;89.60
8140;BME280;4111;50.972;7.072;2023-03-26T17:10:38;99828.75;;;9.65;90.86
8140;BME280;4111;50.972;7.072;2023-03-26T17:13:10;99834.44;;;9.59;91.50
8140;BME280;4111;50.972;7.072;2023-03-26T17:18:34;99852.00;;;9.51;92.45
8140;BME280;4111;50.972;7.072;2023-03-26T17:21:31;99851.50;;;9.54;93.08
8140;BME280;4111;50.972;7.072;2023-03-26T17:32:10;99873.91;;;9.44;92.42
8140;BME280;4111;50.972;7.072;2023-03-26T17:37:08;99886.47;;;9.23;91.73
8140;BME280;4111;50.972;7.072;2023-03-26T17:44:54;99910.44;;;9.37;92.82
8140;BME280;4111;50.972;7.072;2023-03-26T17:50:00;99920.22;;;9.43;92.54
8140;BME280;4111;50.972;7.072;2023-03-26T17:52:46;99924.72;;;9.32;92.00
8140;BME280;4111;50.972;7.072;2023-03-26T17:55:17;99933.63;;;9.27;92.00
8140;BME280;4111;50.972;7.072;2023-03-26T17:57:55;99939.38;;;9.31;92.27
8140;BME280;4111;50.972;7.072;2023-03-26T18:00:27;99944.16;;;9.24;92.03
8140;BME280;4111;50.972;7.072;2023-03-26T18:03:05;99944.13;;;9.19;92.50
8140;BME280;4111;50.972;7.072;2023-03-26T18:05:33;99953.13;;;9.24;93.09
8140;BME280;4111;50.972;7.072;2023-03-26T18:08:29;99956.13;;;9.28;93.04
8140;BME280;4111;50.972;7.072;2023-03-26T18:11:26;99972.34;;;9.23;92.81
8140;BME280;4111;50.972;7.072;2023-03-26T18:16:42;99990.38;;;9.12;93.25
8140;BME280;4111;50.972;7.072;2023-03-26T18:19:16;99994.47;;;9.15;93.55
8140;BME280;4111;50.972;7.072;2023-03-26T18:21:46;99995.69;;;9.02;93.26
8140;BME280;4111;50.972;7.072;2023-03-26T18:24:31;99997.94;;;9.10;93.91
8140;BME280;4111;50.972;7.072;2023-03-26T18:27:20;100009.28;;;9.07;93.70
8140;BME280;4111;50.972;7.072;2023-03-26T18:29:58;100014.75;;;9.12;93.94